sensor_id;sensor_type;location;lat;lon;timestamp;P1;durP1;ratioP1;P2;durP2;ratioP2
36725;SDS011;44936;52.086;5.150;2022-12-11T00:02:20;34.13;;;7.03;;
36725;SDS011;44936;52.086;5.150;2022-12-11T00:04:46;42.33;;;7.82;;
36725;SDS011;44936;52.086;5.150;2022-12-11T00:07:13;31.33;;;6.78;;
36725;SDS011;44936;52.086;5.150;2022-12-11T00:09:39;29.45;;;6.47;;
36725;SDS011;44936;52.086;5.150;2022-12-11T00:12:09;32.90;;;6.13;;
36725;SDS011;44936;52.086;5.150;2022-12-11T00:14:36;31.95;;;6.63;;
36725;SDS011;44936;52.086;5.150;2022-12-11T00:17:04;34.60;;;5.72;;
36725;SDS011;44936;52.086;5.150;2022-12-11T00:19:36;31.00;;;7.05;;
36725;SDS011;44936;52.086;5.150;2022-12-11T00:22:04;39.00;;;7.25;;
36725;SDS011;44936;52.086;5.150;2022-12-11T00:24:32;34.63;;;6.20;;
36725;SDS011;44936;52.086;5.150;2022-12-11T00:26:58;19.58;;;5.80;;
36725;SDS011;44936;52.086;5.150;2022-12-11T00:29:26;24.50;;;5.75;;
36725;SDS011;44936;52.086;5.150;2022-12-11T00:32:04;41.78;;;7.30;;
36725;SDS011;44936;52.086;5.150;2022-12-11T00:34:30;34.35;;;7.32;;
36725;SDS011;44936;52.086;5.150;2022-12-11T00:37:07;36.65;;;8.25;;
36725;SDS011;44936;52.086;5.150;2022-12-11T00:39:32;34.92;;;6.47;;
36725;SDS011;44936;52.086;5.150;2022-12-11T00:41:58;31.83;;;6.03;;
36725;SDS011;44936;52.086;5.150;2022-12-11T00:44:24;34.97;;;6.22;;
36725;SDS011;44936;52.086;5.150;2022-12-11T00:46:49;29.55;;;7.05;;
36725;SDS011;44936;52.086;5.150;2022-12-11T00:49:17;33.33;;;8.48;;
36725;SDS011;44936;52.086;5.150;2022-12-11T00:51:44;33.85;;;7.53;;
36725;SDS011;44936;52.086;5.150;2022-12-11T00:54:13;44.83;;;7.10;;
36725;SDS011;44936;52.086;5.150;2022-12-11T00:56:38;40.83;;;8.45;;
36725;SDS011;44936;52.086;5.150;2022-12-11T00:59:04;34.22;;;7.47;;
36725;SDS011;44936;52.086;5.150;2022-12-11T01:01:30;33.10;;;6.97;;
36725;SDS011;44936;52.086;5.150;2022-12-11T01:03:57;38.15;;;7.78;;
36725;SDS011;44936;52.086;5.150;2022-12-11T01:06:24;33.58;;;6.78;;
36725;SDS011;44936;52.086;5.150;2022-12-11T01:08:51;42.28;;;8.95;;
36725;SDS011;44936;52.086;5.150;2022-12-11T01:11:35;36.20;;;8.63;;
36725;SDS011;44936;52.086;5.150;2022-12-11T01:14:01;39.22;;;7.85;;
36725;SDS011;44936;52.086;5.150;2022-12-11T01:16:27;37.80;;;7.47;;
36725;SDS011;44936;52.086;5.150;2022-12-11T01:18:52;38.92;;;8.55;;
36725;SDS011;44936;52.086;5.150;2022-12-11T01:21:21;33.80;;;8.77;;
36725;SDS011;44936;52.086;5.150;2022-12-11T01:23:48;31.42;;;7.03;;
36725;SDS011;44936;52.086;5.150;2022-12-11T01:26:15;38.40;;;7.88;;
36725;SDS011;44936;52.086;5.150;2022-12-11T01:28:47;37.92;;;7.22;;
36725;SDS011;44936;52.086;5.150;2022-12-11T01:31:18;46.78;;;8.63;;
36725;SDS011;44936;52.086;5.150;2022-12-11T01:33:49;31.80;;;7.82;;
36725;SDS011;44936;52.086;5.150;2022-12-11T01:36:15;38.55;;;7.97;;
36725;SDS011;44936;52.086;5.150;2022-12-11T01:38:46;36.30;;;7.57;;
36725;SDS011;44936;52.086;5.150;2022-12-11T01:41:33;35.60;;;7.45;;
36725;SDS011;44936;52.086;5.150;2022-12-11T01:44:00;36.38;;;7.43;;
36725;SDS011;44936;52.086;5.150;2022-12-11T01:46:27;38.10;;;8.27;;
36725;SDS011;44936;52.086;5.150;2022-12-11T01:48:54;30.98;;;6.72;;
36725;SDS011;44936;52.086;5.150;2022-12-11T01:51:22;36.08;;;7.38;;
36725;SDS011;44936;52.086;5.150;2022-12-11T01:53:52;24.25;;;5.63;;
36725;SDS011;44936;52.086;5.150;2022-12-11T01:56:23;35.97;;;6.73;;
36725;SDS011;44936;52.086;5.150;2022-12-11T01:58:53;31.38;;;7.05;;
36725;SDS011;44936;52.086;5.150;2022-12-11T02:01:43;36.88;;;7.13;;
36725;SDS011;44936;52.086;5.150;2022-12-11T02:04:09;38.33;;;7.85;;
36725;SDS011;44936;52.086;5.150;2022-12-11T02:06:44;34.92;;;6.60;;
36725;SDS011;44936;52.086;5.150;2022-12-11T02:09:16;29.80;;;7.05;;
36725;SDS011;44936;52.086;5.150;2022-12-11T02:15:22;35.40;;;7.38;;
36725;SDS011;44936;52.086;5.150;2022-12-11T02:18:05;27.02;;;7.93;;
36725;SDS011;44936;52.086;5.150;2022-12-11T02:26:06;30.30;;;7.28;;
36725;SDS011;44936;52.086;5.150;2022-12-11T02:28:55;31.35;;;6.30;;
36725;SDS011;44936;52.086;5.150;2022-12-11T02:31:28;33.22;;;6.78;;
36725;SDS011;44936;52.086;5.150;2022-12-11T02:36:39;28.63;;;7.30;;
36725;SDS011;44936;52.086;5.150;2022-12-11T02:39:10;36.33;;;7.38;;
36725;SDS011;44936;52.086;5.150;2022-12-11T02:41:41;26.27;;;7.10;;
36725;SDS011;44936;52.086;5.150;2022-12-11T02:44:13;29.48;;;7.32;;
36725;SDS011;44936;52.086;5.150;2022-12-11T02:46:41;33.25;;;6.78;;
36725;SDS011;44936;52.086;5.150;2022-12-11T02:49:08;30.70;;;7.03;;
36725;SDS011;44936;52.086;5.150;2022-12-11T02:51:37;39.15;;;6.60;;
36725;SDS011;44936;52.086;5.150;2022-12-11T02:54:05;28.95;;;6.80;;
36725;SDS011;44936;52.086;5.150;2022-12-11T02:56:42;20.40;;;5.70;;
36725;SDS011;44936;52.086;5.150;2022-12-11T02:59:17;19.35;;;6.20;;
36725;SDS011;44936;52.086;5.150;2022-12-11T03:01:47;27.95;;;6.03;;
36725;SDS011;44936;52.086;5.150;2022-12-11T03:04:14;23.33;;;6.18;;
36725;SDS011;44936;52.086;5.150;2022-12-11T03:06:42;27.13;;;7.07;;
36725;SDS011;44936;52.086;5.150;2022-12-11T03:09:16;22.35;;;6.53;;
36725;SDS011;44936;52.086;5.150;2022-12-11T03:11:41;27.33;;;6.20;;
36725;SDS011;44936;52.086;5.150;2022-12-11T03:14:07;23.27;;;5.95;;
36725;SDS011;44936;52.086;5.150;2022-12-11T03:16:39;24.85;;;6.13;;
36725;SDS011;44936;52.086;5.150;2022-12-11T03:19:18;23.35;;;6.57;;
36725;SDS011;44936;52.086;5.150;2022-12-11T03:22:10;26.90;;;6.35;;
36725;SDS011;44936;52.086;5.150;2022-12-11T03:24:49;14.90;;;4.90;;
36725;SDS011;44936;52.086;5.150;2022-12-11T03:27:32;21.15;;;5.13;;
36725;SDS011;44936;52.086;5.150;2022-12-11T03:30:18;21.48;;;5.68;;
36725;SDS011;44936;52.086;5.150;2022-12-11T03:32:46;19.98;;;5.30;;
36725;SDS011;44936;52.086;5.150;2022-12-11T03:37:55;22.35;;;5.68;;
36725;SDS011;44936;52.086;5.150;2022-12-11T03:40:27;20.52;;;5.18;;
36725;SDS011;44936;52.086;5.150;2022-12-11T03:42:58;23.33;;;5.20;;
36725;SDS011;44936;52.086;5.150;2022-12-11T03:45:24;18.83;;;4.68;;
36725;SDS011;44936;52.086;5.150;2022-12-11T03:47:54;20.73;;;5.20;;
36725;SDS011;44936;52.086;5.150;2022-12-11T03:50:22;18.95;;;4.63;;
36725;SDS011;44936;52.086;5.150;2022-12-11T03:52:50;23.33;;;5.57;;
36725;SDS011;44936;52.086;5.150;2022-12-11T03:55:17;19.45;;;5.25;;
36725;SDS011;44936;52.086;5.150;2022-12-11T03:57:45;26.00;;;6.85;;
36725;SDS011;44936;52.086;5.150;2022-12-11T04:00:12;16.90;;;5.45;;
36725;SDS011;44936;52.086;5.150;2022-12-11T04:02:40;20.45;;;5.57;;
36725;SDS011;44936;52.086;5.150;2022-12-11T04:05:09;18.92;;;5.38;;
36725;SDS011;44936;52.086;5.150;2022-12-11T04:07:37;18.38;;;5.47;;
36725;SDS011;44936;52.086;5.150;2022-12-11T04:10:04;21.15;;;5.32;;
36725;SDS011;44936;52.086;5.150;2022-12-11T04:12:30;21.92;;;5.85;;
36725;SDS011;44936;52.086;5.150;2022-12-11T04:14:55;18.75;;;5.28;;
36725;SDS011;44936;52.086;5.150;2022-12-11T04:17:34;20.30;;;5.80;;
36725;SDS011;44936;52.086;5.150;2022-12-11T04:20:20;24.10;;;5.63;;
36725;SDS011;44936;52.086;5.150;2022-12-11T04:23:10;23.35;;;6.03;;
36725;SDS011;44936;52.086;5.150;2022-12-11T04:26:06;17.42;;;4.50;;
36725;SDS011;44936;52.086;5.150;2022-12-11T04:28:33;21.33;;;5.13;;
36725;SDS011;44936;52.086;5.150;2022-12-11T04:31:02;17.40;;;5.88;;
36725;SDS011;44936;52.086;5.150;2022-12-11T04:33:30;17.17;;;5.03;;
36725;SDS011;44936;52.086;5.150;2022-12-11T04:35:58;23.95;;;7.05;;
36725;SDS011;44936;52.086;5.150;2022-12-11T04:38:24;23.20;;;6.15;;
36725;SDS011;44936;52.086;5.150;2022-12-11T04:40:57;22.92;;;5.03;;
36725;SDS011;44936;52.086;5.150;2022-12-11T04:43:27;18.90;;;5.78;;
36725;SDS011;44936;52.086;5.150;2022-12-11T04:46:11;21.73;;;5.65;;
36725;SDS011;44936;52.086;5.150;2022-12-11T04:48:37;20.65;;;5.53;;
36725;SDS011;44936;52.086;5.150;2022-12-11T04:51:03;22.58;;;5.20;;
36725;SDS011;44936;52.086;5.150;2022-12-11T04:53:30;20.55;;;6.65;;
36725;SDS011;44936;52.086;5.150;2022-12-11T04:55:55;20.80;;;5.85;;
36725;SDS011;44936;52.086;5.150;2022-12-11T04:58:22;19.10;;;5.43;;
36725;SDS011;44936;52.086;5.150;2022-12-11T05:00:48;22.25;;;5.47;;
36725;SDS011;44936;52.086;5.150;2022-12-11T05:03:14;21.73;;;6.38;;
36725;SDS011;44936;52.086;5.150;2022-12-11T05:05:40;19.80;;;5.80;;
36725;SDS011;44936;52.086;5.150;2022-12-11T05:08:12;21.50;;;6.03;;
36725;SDS011;44936;52.086;5.150;2022-12-11T05:10:38;23.98;;;5.25;;
36725;SDS011;44936;52.086;5.150;2022-12-11T05:13:04;16.88;;;5.20;;
36725;SDS011;44936;52.086;5.150;2022-12-11T05:15:32;19.77;;;5.35;;
36725;SDS011;44936;52.086;5.150;2022-12-11T05:18:03;23.30;;;5.75;;
36725;SDS011;44936;52.086;5.150;2022-12-11T05:20:28;17.38;;;5.07;;
36725;SDS011;44936;52.086;5.150;2022-12-11T05:22:54;18.42;;;5.47;;
36725;SDS011;44936;52.086;5.150;2022-12-11T05:25:20;18.02;;;5.55;;
36725;SDS011;44936;52.086;5.150;2022-12-11T05:27:48;21.83;;;5.95;;
36725;SDS011;44936;52.086;5.150;2022-12-11T05:30:16;17.20;;;5.28;;
36725;SDS011;44936;52.086;5.150;2022-12-11T05:32:43;19.40;;;5.10;;
36725;SDS011;44936;52.086;5.150;2022-12-11T05:35:08;23.05;;;5.93;;
36725;SDS011;44936;52.086;5.150;2022-12-11T05:37:35;20.85;;;4.97;;
36725;SDS011;44936;52.086;5.150;2022-12-11T05:40:01;16.98;;;4.68;;
36725;SDS011;44936;52.086;5.150;2022-12-11T05:42:28;16.90;;;5.30;;
36725;SDS011;44936;52.086;5.150;2022-12-11T05:44:53;22.05;;;5.18;;
36725;SDS011;44936;52.086;5.150;2022-12-11T05:47:19;19.58;;;5.50;;
36725;SDS011;44936;52.086;5.150;2022-12-11T05:49:45;20.88;;;5.38;;
36725;SDS011;44936;52.086;5.150;2022-12-11T05:52:11;17.98;;;4.78;;
36725;SDS011;44936;52.086;5.150;2022-12-11T05:54:37;19.58;;;5.32;;
36725;SDS011;44936;52.086;5.150;2022-12-11T05:57:03;17.95;;;4.80;;
36725;SDS011;44936;52.086;5.150;2022-12-11T05:59:28;18.55;;;5.25;;
36725;SDS011;44936;52.086;5.150;2022-12-11T06:01:55;27.45;;;6.43;;
36725;SDS011;44936;52.086;5.150;2022-12-11T06:04:31;18.23;;;4.97;;
36725;SDS011;44936;52.086;5.150;2022-12-11T06:06:57;22.45;;;5.30;;
36725;SDS011;44936;52.086;5.150;2022-12-11T06:09:22;16.80;;;4.53;;
36725;SDS011;44936;52.086;5.150;2022-12-11T06:11:48;18.50;;;5.53;;
36725;SDS011;44936;52.086;5.150;2022-12-11T06:14:16;16.73;;;4.60;;
36725;SDS011;44936;52.086;5.150;2022-12-11T06:16:41;22.80;;;5.25;;
36725;SDS011;44936;52.086;5.150;2022-12-11T06:19:11;20.42;;;5.50;;
36725;SDS011;44936;52.086;5.150;2022-12-11T06:21:38;17.42;;;4.47;;
36725;SDS011;44936;52.086;5.150;2022-12-11T06:24:04;24.20;;;5.50;;
36725;SDS011;44936;52.086;5.150;2022-12-11T06:26:30;20.50;;;5.88;;
36725;SDS011;44936;52.086;5.150;2022-12-11T06:28:57;18.25;;;4.55;;
36725;SDS011;44936;52.086;5.150;2022-12-11T06:31:23;22.08;;;5.00;;
36725;SDS011;44936;52.086;5.150;2022-12-11T06:33:52;19.40;;;5.70;;
36725;SDS011;44936;52.086;5.150;2022-12-11T06:36:19;21.40;;;4.95;;
36725;SDS011;44936;52.086;5.150;2022-12-11T06:38:46;21.35;;;6.22;;
36725;SDS011;44936;52.086;5.150;2022-12-11T06:43:44;22.08;;;5.43;;
36725;SDS011;44936;52.086;5.150;2022-12-11T06:46:16;20.23;;;5.65;;
36725;SDS011;44936;52.086;5.150;2022-12-11T06:48:47;23.42;;;5.32;;
36725;SDS011;44936;52.086;5.150;2022-12-11T06:51:17;16.63;;;4.75;;
36725;SDS011;44936;52.086;5.150;2022-12-11T06:53:49;22.13;;;5.28;;
36725;SDS011;44936;52.086;5.150;2022-12-11T06:56:16;23.55;;;5.88;;
36725;SDS011;44936;52.086;5.150;2022-12-11T06:58:42;26.55;;;6.38;;
36725;SDS011;44936;52.086;5.150;2022-12-11T07:01:15;20.85;;;5.70;;
36725;SDS011;44936;52.086;5.150;2022-12-11T07:03:47;21.48;;;5.32;;
36725;SDS011;44936;52.086;5.150;2022-12-11T07:06:20;21.50;;;5.40;;
36725;SDS011;44936;52.086;5.150;2022-12-11T07:08:49;23.55;;;5.53;;
36725;SDS011;44936;52.086;5.150;2022-12-11T07:11:15;24.33;;;5.70;;
36725;SDS011;44936;52.086;5.150;2022-12-11T07:13:41;22.00;;;6.05;;
36725;SDS011;44936;52.086;5.150;2022-12-11T07:16:14;19.67;;;5.70;;
36725;SDS011;44936;52.086;5.150;2022-12-11T07:18:48;26.05;;;5.53;;
36725;SDS011;44936;52.086;5.150;2022-12-11T07:21:15;25.95;;;6.13;;
36725;SDS011;44936;52.086;5.150;2022-12-11T07:23:41;22.67;;;5.97;;
36725;SDS011;44936;52.086;5.150;2022-12-11T07:26:08;19.73;;;5.82;;
36725;SDS011;44936;52.086;5.150;2022-12-11T07:28:35;18.75;;;4.47;;
36725;SDS011;44936;52.086;5.150;2022-12-11T07:31:06;14.80;;;4.60;;
36725;SDS011;44936;52.086;5.150;2022-12-11T07:33:35;18.52;;;4.35;;
36725;SDS011;44936;52.086;5.150;2022-12-11T07:36:05;22.20;;;5.95;;
36725;SDS011;44936;52.086;5.150;2022-12-11T07:38:32;22.70;;;5.30;;
36725;SDS011;44936;52.086;5.150;2022-12-11T07:41:05;21.88;;;5.60;;
36725;SDS011;44936;52.086;5.150;2022-12-11T07:43:32;21.00;;;5.32;;
36725;SDS011;44936;52.086;5.150;2022-12-11T07:46:03;17.73;;;4.75;;
36725;SDS011;44936;52.086;5.150;2022-12-11T07:48:42;22.42;;;4.80;;
36725;SDS011;44936;52.086;5.150;2022-12-11T07:51:13;19.67;;;5.15;;
36725;SDS011;44936;52.086;5.150;2022-12-11T07:53:50;20.08;;;5.45;;
36725;SDS011;44936;52.086;5.150;2022-12-11T07:56:21;17.70;;;4.90;;
36725;SDS011;44936;52.086;5.150;2022-12-11T07:58:48;20.35;;;5.13;;
36725;SDS011;44936;52.086;5.150;2022-12-11T08:01:15;26.92;;;6.10;;
36725;SDS011;44936;52.086;5.150;2022-12-11T08:03:48;23.90;;;5.53;;
36725;SDS011;44936;52.086;5.150;2022-12-11T08:06:15;17.67;;;5.32;;
36725;SDS011;44936;52.086;5.150;2022-12-11T08:08:41;22.15;;;5.55;;
36725;SDS011;44936;52.086;5.150;2022-12-11T08:11:09;21.02;;;5.97;;
36725;SDS011;44936;52.086;5.150;2022-12-11T08:13:37;21.75;;;5.93;;
36725;SDS011;44936;52.086;5.150;2022-12-11T08:16:05;21.98;;;5.65;;
36725;SDS011;44936;52.086;5.150;2022-12-11T08:18:36;21.10;;;6.45;;
36725;SDS011;44936;52.086;5.150;2022-12-11T08:21:08;20.33;;;5.50;;
36725;SDS011;44936;52.086;5.150;2022-12-11T08:23:39;22.15;;;5.10;;
36725;SDS011;44936;52.086;5.150;2022-12-11T08:26:06;21.13;;;5.53;;
36725;SDS011;44936;52.086;5.150;2022-12-11T08:31:09;17.05;;;5.38;;
36725;SDS011;44936;52.086;5.150;2022-12-11T08:33:37;20.70;;;6.00;;
36725;SDS011;44936;52.086;5.150;2022-12-11T08:36:05;16.55;;;4.97;;
36725;SDS011;44936;52.086;5.150;2022-12-11T08:38:33;17.33;;;4.80;;
36725;SDS011;44936;52.086;5.150;2022-12-11T08:40:58;19.55;;;5.57;;
36725;SDS011;44936;52.086;5.150;2022-12-11T08:43:32;24.58;;;5.60;;
36725;SDS011;44936;52.086;5.150;2022-12-11T08:45:58;24.85;;;5.82;;
36725;SDS011;44936;52.086;5.150;2022-12-11T08:48:23;18.90;;;6.15;;
36725;SDS011;44936;52.086;5.150;2022-12-11T08:50:48;19.27;;;5.82;;
36725;SDS011;44936;52.086;5.150;2022-12-11T08:53:14;16.90;;;5.68;;
36725;SDS011;44936;52.086;5.150;2022-12-11T08:55:40;20.98;;;5.55;;
36725;SDS011;44936;52.086;5.150;2022-12-11T08:58:09;26.40;;;5.72;;
36725;SDS011;44936;52.086;5.150;2022-12-11T09:00:34;23.65;;;5.82;;
36725;SDS011;44936;52.086;5.150;2022-12-11T09:03:00;17.13;;;5.28;;
36725;SDS011;44936;52.086;5.150;2022-12-11T09:05:25;19.05;;;5.43;;
36725;SDS011;44936;52.086;5.150;2022-12-11T09:07:51;20.13;;;5.25;;
36725;SDS011;44936;52.086;5.150;2022-12-11T09:10:17;20.23;;;6.03;;
36725;SDS011;44936;52.086;5.150;2022-12-11T09:12:45;22.60;;;6.25;;
36725;SDS011;44936;52.086;5.150;2022-12-11T09:15:11;22.17;;;5.75;;
36725;SDS011;44936;52.086;5.150;2022-12-11T09:17:36;15.80;;;5.18;;
36725;SDS011;44936;52.086;5.150;2022-12-11T09:20:03;21.17;;;6.18;;
36725;SDS011;44936;52.086;5.150;2022-12-11T09:22:31;22.80;;;6.07;;
36725;SDS011;44936;52.086;5.150;2022-12-11T09:24:57;21.38;;;5.82;;
36725;SDS011;44936;52.086;5.150;2022-12-11T09:27:23;21.52;;;5.95;;
36725;SDS011;44936;52.086;5.150;2022-12-11T09:29:49;18.90;;;5.25;;
36725;SDS011;44936;52.086;5.150;2022-12-11T09:32:15;20.90;;;5.97;;
36725;SDS011;44936;52.086;5.150;2022-12-11T09:34:41;19.88;;;6.03;;
36725;SDS011;44936;52.086;5.150;2022-12-11T09:37:06;21.20;;;5.90;;
36725;SDS011;44936;52.086;5.150;2022-12-11T09:39:32;17.73;;;5.18;;
36725;SDS011;44936;52.086;5.150;2022-12-11T09:44:56;18.95;;;5.35;;
36725;SDS011;44936;52.086;5.150;2022-12-11T09:47:31;19.05;;;5.38;;
36725;SDS011;44936;52.086;5.150;2022-12-11T09:52:33;19.95;;;5.82;;
36725;SDS011;44936;52.086;5.150;2022-12-11T09:55:03;22.23;;;5.40;;
36725;SDS011;44936;52.086;5.150;2022-12-11T10:00:23;25.50;;;7.65;;
36725;SDS011;44936;52.086;5.150;2022-12-11T10:05:46;19.15;;;5.07;;
36725;SDS011;44936;52.086;5.150;2022-12-11T10:11:19;21.23;;;5.53;;
36725;SDS011;44936;52.086;5.150;2022-12-11T10:16:53;17.90;;;5.90;;
36725;SDS011;44936;52.086;5.150;2022-12-11T10:19:27;20.88;;;5.35;;
36725;SDS011;44936;52.086;5.150;2022-12-11T10:21:54;16.95;;;5.45;;
36725;SDS011;44936;52.086;5.150;2022-12-11T10:26:54;19.48;;;5.38;;
36725;SDS011;44936;52.086;5.150;2022-12-11T10:29:22;21.05;;;6.18;;
36725;SDS011;44936;52.086;5.150;2022-12-11T10:31:52;20.77;;;5.30;;
36725;SDS011;44936;52.086;5.150;2022-12-11T10:36:49;21.48;;;4.53;;
36725;SDS011;44936;52.086;5.150;2022-12-11T10:39:19;18.38;;;5.13;;
36725;SDS011;44936;52.086;5.150;2022-12-11T10:41:47;21.73;;;5.95;;
36725;SDS011;44936;52.086;5.150;2022-12-11T10:44:15;17.17;;;4.72;;
36725;SDS011;44936;52.086;5.150;2022-12-11T10:46:42;19.55;;;5.75;;
36725;SDS011;44936;52.086;5.150;2022-12-11T10:49:23;17.27;;;4.95;;
36725;SDS011;44936;52.086;5.150;2022-12-11T10:51:51;19.98;;;4.15;;
36725;SDS011;44936;52.086;5.150;2022-12-11T10:54:38;18.63;;;4.57;;
36725;SDS011;44936;52.086;5.150;2022-12-11T10:57:09;18.30;;;4.60;;
36725;SDS011;44936;52.086;5.150;2022-12-11T10:59:48;13.48;;;3.72;;
36725;SDS011;44936;52.086;5.150;2022-12-11T11:02:24;16.80;;;4.30;;
36725;SDS011;44936;52.086;5.150;2022-12-11T11:04:53;17.10;;;4.93;;
36725;SDS011;44936;52.086;5.150;2022-12-11T11:07:28;13.30;;;4.20;;
36725;SDS011;44936;52.086;5.150;2022-12-11T11:12:37;17.35;;;4.00;;
36725;SDS011;44936;52.086;5.150;2022-12-11T11:15:10;19.23;;;4.43;;
36725;SDS011;44936;52.086;5.150;2022-12-11T11:17:45;11.85;;;4.00;;
36725;SDS011;44936;52.086;5.150;2022-12-11T11:20:15;16.65;;;4.53;;
36725;SDS011;44936;52.086;5.150;2022-12-11T11:22:50;19.20;;;4.55;;
36725;SDS011;44936;52.086;5.150;2022-12-11T11:25:19;14.77;;;5.28;;
36725;SDS011;44936;52.086;5.150;2022-12-11T11:27:49;13.30;;;3.50;;
36725;SDS011;44936;52.086;5.150;2022-12-11T11:33:01;14.73;;;4.25;;
36725;SDS011;44936;52.086;5.150;2022-12-11T11:35:30;14.25;;;3.97;;
36725;SDS011;44936;52.086;5.150;2022-12-11T11:40:43;16.88;;;4.75;;
36725;SDS011;44936;52.086;5.150;2022-12-11T11:43:30;15.68;;;4.40;;
36725;SDS011;44936;52.086;5.150;2022-12-11T11:46:10;17.88;;;5.03;;
36725;SDS011;44936;52.086;5.150;2022-12-11T11:52:31;17.77;;;4.40;;
36725;SDS011;44936;52.086;5.150;2022-12-11T11:55:06;16.02;;;4.80;;
36725;SDS011;44936;52.086;5.150;2022-12-11T11:57:41;19.80;;;5.00;;
36725;SDS011;44936;52.086;5.150;2022-12-11T12:00:19;16.00;;;5.53;;
36725;SDS011;44936;52.086;5.150;2022-12-11T12:02:50;16.35;;;4.95;;
36725;SDS011;44936;52.086;5.150;2022-12-11T12:05:27;22.38;;;5.05;;
36725;SDS011;44936;52.086;5.150;2022-12-11T12:08:23;17.83;;;4.80;;
36725;SDS011;44936;52.086;5.150;2022-12-11T12:10:50;15.20;;;4.38;;
36725;SDS011;44936;52.086;5.150;2022-12-11T12:16:01;19.85;;;5.43;;
36725;SDS011;44936;52.086;5.150;2022-12-11T12:19:00;21.30;;;4.78;;
36725;SDS011;44936;52.086;5.150;2022-12-11T12:21:38;22.50;;;5.95;;
36725;SDS011;44936;52.086;5.150;2022-12-11T12:24:14;19.13;;;4.80;;
36725;SDS011;44936;52.086;5.150;2022-12-11T12:27:18;22.27;;;5.25;;
36725;SDS011;44936;52.086;5.150;2022-12-11T12:32:29;19.20;;;5.32;;
36725;SDS011;44936;52.086;5.150;2022-12-11T12:35:14;17.92;;;4.95;;
36725;SDS011;44936;52.086;5.150;2022-12-11T12:37:52;20.42;;;5.07;;
36725;SDS011;44936;52.086;5.150;2022-12-11T12:40:29;18.35;;;4.95;;
36725;SDS011;44936;52.086;5.150;2022-12-11T12:45:44;20.20;;;5.00;;
36725;SDS011;44936;52.086;5.150;2022-12-11T12:48:19;24.45;;;5.45;;
36725;SDS011;44936;52.086;5.150;2022-12-11T12:50:47;17.45;;;4.93;;
36725;SDS011;44936;52.086;5.150;2022-12-11T12:53:18;21.25;;;6.07;;
36725;SDS011;44936;52.086;5.150;2022-12-11T12:55:47;18.23;;;4.68;;
36725;SDS011;44936;52.086;5.150;2022-12-11T12:58:28;21.35;;;4.82;;
36725;SDS011;44936;52.086;5.150;2022-12-11T13:03:55;22.92;;;5.63;;
36725;SDS011;44936;52.086;5.150;2022-12-11T13:06:42;15.00;;;3.83;;
36725;SDS011;44936;52.086;5.150;2022-12-11T13:09:17;24.42;;;5.55;;
36725;SDS011;44936;52.086;5.150;2022-12-11T13:11:52;21.80;;;5.72;;
36725;SDS011;44936;52.086;5.150;2022-12-11T13:14:28;15.15;;;4.38;;
36725;SDS011;44936;52.086;5.150;2022-12-11T13:19:39;18.23;;;4.88;;
36725;SDS011;44936;52.086;5.150;2022-12-11T13:24:44;19.85;;;4.70;;
36725;SDS011;44936;52.086;5.150;2022-12-11T13:27:22;21.45;;;5.38;;
36725;SDS011;44936;52.086;5.150;2022-12-11T13:29:51;20.25;;;5.65;;
36725;SDS011;44936;52.086;5.150;2022-12-11T13:32:32;24.45;;;5.80;;
36725;SDS011;44936;52.086;5.150;2022-12-11T13:34:59;23.52;;;5.10;;
36725;SDS011;44936;52.086;5.150;2022-12-11T13:37:31;26.20;;;6.47;;
36725;SDS011;44936;52.086;5.150;2022-12-11T13:40:08;20.27;;;5.40;;
36725;SDS011;44936;52.086;5.150;2022-12-11T13:42:43;25.20;;;5.60;;
36725;SDS011;44936;52.086;5.150;2022-12-11T13:45:22;22.88;;;5.80;;
36725;SDS011;44936;52.086;5.150;2022-12-11T13:47:54;28.35;;;6.30;;
36725;SDS011;44936;52.086;5.150;2022-12-11T13:50:23;21.92;;;5.50;;
36725;SDS011;44936;52.086;5.150;2022-12-11T13:52:53;19.73;;;4.65;;
36725;SDS011;44936;52.086;5.150;2022-12-11T13:55:26;25.75;;;5.75;;
36725;SDS011;44936;52.086;5.150;2022-12-11T13:57:56;26.40;;;6.45;;
36725;SDS011;44936;52.086;5.150;2022-12-11T14:00:24;19.17;;;5.22;;
36725;SDS011;44936;52.086;5.150;2022-12-11T14:02:54;29.92;;;7.15;;
36725;SDS011;44936;52.086;5.150;2022-12-11T14:08:08;19.95;;;6.00;;
36725;SDS011;44936;52.086;5.150;2022-12-11T14:10:35;25.20;;;5.50;;
36725;SDS011;44936;52.086;5.150;2022-12-11T14:13:02;20.05;;;5.15;;
36725;SDS011;44936;52.086;5.150;2022-12-11T14:15:33;27.45;;;6.35;;
36725;SDS011;44936;52.086;5.150;2022-12-11T14:18:11;24.95;;;5.47;;
36725;SDS011;44936;52.086;5.150;2022-12-11T14:20:42;24.02;;;5.63;;
36725;SDS011;44936;52.086;5.150;2022-12-11T14:23:19;22.67;;;6.32;;
36725;SDS011;44936;52.086;5.150;2022-12-11T14:28:20;20.25;;;5.50;;
36725;SDS011;44936;52.086;5.150;2022-12-11T14:30:49;26.58;;;6.18;;
36725;SDS011;44936;52.086;5.150;2022-12-11T14:33:16;18.13;;;4.80;;
36725;SDS011;44936;52.086;5.150;2022-12-11T14:35:45;26.30;;;5.97;;
36725;SDS011;44936;52.086;5.150;2022-12-11T14:38:15;24.08;;;6.20;;
36725;SDS011;44936;52.086;5.150;2022-12-11T14:40:44;19.92;;;5.18;;
36725;SDS011;44936;52.086;5.150;2022-12-11T14:43:18;19.83;;;5.25;;
36725;SDS011;44936;52.086;5.150;2022-12-11T14:45:48;27.17;;;5.95;;
36725;SDS011;44936;52.086;5.150;2022-12-11T14:48:20;21.55;;;5.82;;
36725;SDS011;44936;52.086;5.150;2022-12-11T14:50:52;16.70;;;4.60;;
36725;SDS011;44936;52.086;5.150;2022-12-11T14:53:25;22.92;;;6.20;;
36725;SDS011;44936;52.086;5.150;2022-12-11T14:55:56;19.13;;;5.93;;
36725;SDS011;44936;52.086;5.150;2022-12-11T14:58:26;21.88;;;6.10;;
36725;SDS011;44936;52.086;5.150;2022-12-11T15:00:57;22.80;;;5.43;;
36725;SDS011;44936;52.086;5.150;2022-12-11T15:03:36;23.10;;;4.93;;
36725;SDS011;44936;52.086;5.150;2022-12-11T15:06:21;19.15;;;6.10;;
36725;SDS011;44936;52.086;5.150;2022-12-11T15:11:43;21.17;;;5.68;;
36725;SDS011;44936;52.086;5.150;2022-12-11T15:14:11;21.05;;;5.20;;
36725;SDS011;44936;52.086;5.150;2022-12-11T15:16:39;24.45;;;5.35;;
36725;SDS011;44936;52.086;5.150;2022-12-11T15:19:06;18.02;;;5.03;;
36725;SDS011;44936;52.086;5.150;2022-12-11T15:21:43;20.10;;;5.38;;
36725;SDS011;44936;52.086;5.150;2022-12-11T15:27:24;23.52;;;6.07;;
36725;SDS011;44936;52.086;5.150;2022-12-11T15:30:01;20.80;;;4.57;;
36725;SDS011;44936;52.086;5.150;2022-12-11T15:32:38;16.23;;;5.03;;
36725;SDS011;44936;52.086;5.150;2022-12-11T15:35:23;19.42;;;6.00;;
36725;SDS011;44936;52.086;5.150;2022-12-11T15:38:01;22.27;;;6.38;;
36725;SDS011;44936;52.086;5.150;2022-12-11T15:40:26;20.48;;;4.80;;
36725;SDS011;44936;52.086;5.150;2022-12-11T15:42:53;19.00;;;4.60;;
36725;SDS011;44936;52.086;5.150;2022-12-11T15:45:20;20.13;;;5.57;;
36725;SDS011;44936;52.086;5.150;2022-12-11T15:47:52;15.90;;;5.10;;
36725;SDS011;44936;52.086;5.150;2022-12-11T15:50:20;19.42;;;5.60;;
36725;SDS011;44936;52.086;5.150;2022-12-11T15:52:51;21.33;;;4.93;;
36725;SDS011;44936;52.086;5.150;2022-12-11T15:55:20;18.88;;;5.18;;
36725;SDS011;44936;52.086;5.150;2022-12-11T16:00:20;20.67;;;5.47;;
36725;SDS011;44936;52.086;5.150;2022-12-11T16:02:49;18.38;;;5.00;;
36725;SDS011;44936;52.086;5.150;2022-12-11T16:05:19;15.43;;;4.38;;
36725;SDS011;44936;52.086;5.150;2022-12-11T16:07:47;20.42;;;5.35;;
36725;SDS011;44936;52.086;5.150;2022-12-11T16:10:17;21.58;;;4.97;;
36725;SDS011;44936;52.086;5.150;2022-12-11T16:12:44;19.98;;;5.43;;
36725;SDS011;44936;52.086;5.150;2022-12-11T16:15:13;22.73;;;5.45;;
36725;SDS011;44936;52.086;5.150;2022-12-11T16:17:39;18.33;;;5.35;;